createdAt,value
2022-11-11T00:01:08.733Z,0.40
2022-11-11T00:03:35.458Z,0.60
2022-11-11T00:06:03.516Z,0.40
2022-11-11T00:08:30.494Z,0.40
2022-11-11T00:11:07.365Z,0.30
2022-11-11T00:13:34.592Z,0.40
2022-11-11T00:16:09.458Z,0.40
2022-11-11T00:18:54.995Z,0.75
2022-11-11T00:21:37.287Z,0.30
2022-11-11T00:24:42.201Z,0.52
2022-11-11T00:27:09.750Z,0.60
2022-11-11T00:29:38.030Z,0.60
2022-11-11T00:32:24.293Z,0.80
2022-11-11T00:35:10.175Z,0.60
2022-11-11T00:37:37.082Z,0.70
2022-11-11T00:40:04.096Z,0.65
2022-11-11T00:42:30.833Z,0.47
2022-11-11T00:44:57.975Z,0.43
2022-11-11T00:47:43.064Z,0.60
2022-11-11T00:50:48.974Z,0.50
2022-11-11T00:53:21.575Z,0.50
2022-11-11T00:55:52.566Z,0.43
2022-11-11T00:58:19.306Z,0.57
2022-11-11T01:00:46.154Z,0.50
2022-11-11T01:03:12.905Z,0.50
2022-11-11T01:05:39.688Z,0.50
2022-11-11T01:08:06.417Z,0.50
2022-11-11T01:10:39.128Z,0.50
2022-11-11T01:13:13.213Z,0.68
2022-11-11T01:15:46.263Z,0.70
2022-11-11T01:18:14.565Z,0.45
2022-11-11T01:20:41.830Z,0.77
2022-11-11T01:23:09.550Z,0.57
2022-11-11T01:25:37.066Z,0.50
2022-11-11T01:28:04.641Z,0.55
2022-11-11T01:30:32.073Z,0.40
2022-11-11T01:32:59.093Z,0.50
2022-11-11T01:35:26.116Z,0.60
2022-11-11T01:37:53.203Z,0.40
2022-11-11T01:40:20.212Z,0.50
2022-11-11T01:42:48.315Z,0.13
2022-11-11T01:45:54.755Z,0.70
2022-11-11T01:49:02.338Z,0.45
2022-11-11T01:51:36.881Z,0.52
2022-11-11T01:54:06.318Z,0.40
2022-11-11T01:56:33.312Z,0.20
2022-11-11T01:59:02.584Z,0.47
2022-11-11T02:01:29.655Z,0.30
2022-11-11T02:04:14.892Z,0.45
2022-11-11T02:06:41.913Z,0.50
2022-11-11T02:09:09.827Z,0.50
2022-11-11T02:11:55.436Z,0.70
2022-11-11T02:14:37.208Z,0.40
2022-11-11T02:17:05.649Z,0.50
2022-11-11T02:20:02.573Z,0.40
2022-11-11T02:22:35.234Z,0.45
2022-11-11T02:25:02.629Z,0.40
2022-11-11T02:27:30.127Z,0.43
2022-11-11T02:30:00.376Z,0.65
2022-11-11T02:32:27.176Z,0.55
2022-11-11T02:34:53.977Z,0.60
2022-11-11T02:37:25.481Z,0.30
2022-11-11T02:40:03.615Z,0.20
2022-11-11T02:42:31.707Z,0.35
2022-11-11T02:44:59.453Z,0.40
2022-11-11T02:47:27.388Z,0.30
2022-11-11T02:49:54.214Z,0.40
2022-11-11T02:52:21.352Z,0.30
2022-11-11T02:54:49.422Z,0.50
2022-11-11T02:57:16.768Z,0.40
2022-11-11T02:59:43.684Z,0.47
2022-11-11T03:02:10.639Z,0.50
2022-11-11T03:04:38.405Z,0.40
2022-11-11T03:07:05.671Z,0.40
2022-11-11T03:09:32.655Z,0.55
2022-11-11T03:12:00.016Z,0.38
2022-11-11T03:14:26.936Z,0.30
2022-11-11T03:17:12.277Z,0.40
2022-11-11T03:19:39.305Z,0.20
2022-11-11T03:25:11.138Z,0.50
2022-11-11T03:27:37.979Z,0.50
2022-11-11T03:30:05.074Z,0.38
2022-11-11T03:32:32.405Z,0.40
2022-11-11T03:34:59.122Z,0.35
2022-11-11T03:37:44.483Z,0.40
2022-11-11T03:40:11.545Z,0.30
2022-11-11T03:42:38.288Z,0.47
2022-11-11T03:45:05.254Z,0.70
2022-11-11T03:47:31.912Z,0.60
2022-11-11T03:49:58.733Z,0.40
2022-11-11T03:52:25.410Z,0.50
2022-11-11T03:54:52.088Z,0.70
2022-11-11T03:57:31.918Z,0.40
2022-11-11T03:59:58.993Z,0.40
2022-11-11T04:02:44.262Z,0.75
2022-11-11T04:05:29.418Z,0.50
2022-11-11T04:08:14.609Z,0.40
2022-11-11T04:10:41.294Z,0.52
2022-11-11T04:13:26.654Z,0.43
2022-11-11T04:16:08.659Z,0.30
2022-11-11T04:18:54.447Z,0.30
2022-11-11T04:21:40.541Z,0.30
2022-11-11T04:24:26.105Z,0.30
2022-11-11T04:26:54.827Z,0.40
2022-11-11T04:29:31.431Z,0.40
2022-11-11T04:32:27.283Z,0.50
2022-11-11T04:34:58.451Z,0.40
2022-11-11T04:37:25.972Z,0.50
2022-11-11T04:40:11.736Z,0.32
2022-11-11T04:42:39.440Z,0.30
2022-11-11T04:45:25.848Z,0.40
2022-11-11T04:48:13.299Z,0.47
2022-11-11T04:50:41.340Z,0.30
2022-11-11T04:53:10.868Z,0.47
2022-11-11T04:55:56.451Z,0.47
2022-11-11T04:58:25.545Z,0.60
2022-11-11T05:00:52.356Z,0.43
2022-11-11T05:03:21.743Z,0.50
2022-11-11T05:06:07.186Z,0.52
2022-11-11T05:08:53.800Z,0.50
2022-11-11T05:11:21.139Z,0.80
2022-11-11T05:14:06.812Z,0.73
2022-11-11T05:16:53.312Z,0.60
2022-11-11T05:19:38.636Z,0.90
2022-11-11T05:22:37.661Z,0.80
2022-11-11T05:25:30.199Z,0.60
2022-11-11T05:27:57.423Z,0.45
2022-11-11T05:30:24.466Z,0.80
2022-11-11T05:32:51.616Z,0.95
2022-11-11T05:35:18.589Z,1.17
2022-11-11T05:38:05.313Z,0.50
2022-11-11T05:40:32.150Z,0.82
2022-11-11T05:42:58.954Z,0.90
2022-11-11T05:45:25.797Z,0.73
2022-11-11T05:47:52.565Z,0.80
2022-11-11T05:50:19.461Z,0.93
2022-11-11T05:52:50.267Z,0.60
2022-11-11T05:55:17.206Z,0.50
2022-11-11T05:57:44.078Z,0.45
2022-11-11T06:00:11.353Z,0.57
2022-11-11T06:02:38.827Z,0.73
2022-11-11T06:05:05.675Z,0.60
2022-11-11T06:07:32.520Z,0.60
2022-11-11T06:10:19.230Z,0.63
2022-11-11T06:13:04.521Z,0.60
2022-11-11T06:15:33.085Z,0.52
2022-11-11T06:18:00.198Z,0.50
2022-11-11T06:20:27.160Z,0.55
2022-11-11T06:22:56.585Z,0.40
2022-11-11T06:25:46.223Z,0.52
2022-11-11T06:28:13.092Z,0.50
2022-11-11T06:30:50.128Z,0.60
2022-11-11T06:33:17.695Z,0.47
2022-11-11T06:35:45.468Z,0.55
2022-11-11T06:38:12.340Z,0.40
2022-11-11T06:40:39.352Z,0.75
2022-11-11T06:43:06.073Z,0.70
2022-11-11T06:45:33.622Z,0.70
2022-11-11T06:48:00.518Z,0.68
2022-11-11T06:50:29.011Z,0.75
2022-11-11T06:52:56.223Z,0.70
2022-11-11T06:55:22.945Z,0.55
2022-11-11T06:57:49.680Z,0.50
2022-11-11T07:00:18.874Z,0.77
2022-11-11T07:02:48.871Z,0.57
2022-11-11T07:05:15.735Z,0.88
2022-11-11T07:07:42.732Z,0.50
2022-11-11T07:10:10.868Z,0.60
2022-11-11T07:12:40.282Z,0.70
2022-11-11T07:15:07.429Z,0.55
2022-11-11T07:17:34.132Z,0.63
2022-11-11T07:20:01.316Z,0.63
2022-11-11T07:22:28.182Z,0.60
2022-11-11T07:24:54.860Z,0.88
2022-11-11T07:27:21.692Z,0.68
2022-11-11T07:29:48.683Z,0.95
2022-11-11T07:32:17.440Z,0.70
2022-11-11T07:34:46.777Z,1.05
2022-11-11T07:37:13.461Z,0.60
2022-11-11T07:39:40.125Z,0.70
2022-11-11T07:42:06.908Z,0.70
2022-11-11T07:44:33.741Z,0.80
2022-11-11T07:47:00.568Z,0.77
2022-11-11T07:49:27.431Z,0.70
2022-11-11T07:51:54.099Z,0.98
2022-11-11T07:54:20.923Z,0.80
2022-11-11T07:56:47.718Z,0.80
2022-11-11T07:59:14.406Z,0.60
2022-11-11T08:01:41.151Z,0.82
2022-11-11T08:04:08.044Z,0.60
2022-11-11T08:06:34.851Z,0.73
2022-11-11T08:09:02.671Z,0.60
2022-11-11T08:11:48.017Z,0.57
2022-11-11T08:14:15.331Z,0.80
2022-11-11T08:16:42.578Z,0.80
2022-11-11T08:19:09.433Z,0.70
2022-11-11T08:21:36.154Z,0.70
2022-11-11T08:24:56.594Z,0.73
2022-11-11T08:26:50.718Z,0.47
2022-11-11T08:29:17.849Z,0.75
2022-11-11T08:31:44.495Z,0.75
2022-11-11T08:34:11.314Z,0.75
2022-11-11T08:36:38.460Z,0.90
2022-11-11T08:39:05.283Z,0.98
2022-11-11T08:41:32.254Z,0.90
2022-11-11T08:44:00.767Z,1.20
2022-11-11T08:46:27.536Z,0.98
2022-11-11T08:48:54.396Z,0.82
2022-11-11T08:51:21.304Z,0.90
2022-11-11T08:53:48.009Z,0.60
2022-11-11T08:56:17.088Z,0.63
2022-11-11T08:58:44.093Z,0.80
2022-11-11T09:01:13.713Z,0.50
2022-11-11T09:03:44.164Z,0.90
2022-11-11T09:06:12.124Z,1.20
2022-11-11T09:08:41.299Z,0.73
2022-11-11T09:11:08.253Z,0.90
2022-11-11T09:13:39.086Z,0.70
2022-11-11T09:16:09.137Z,0.90
2022-11-11T09:18:36.079Z,0.75
2022-11-11T09:21:03.741Z,0.60
2022-11-11T09:23:30.573Z,0.73
2022-11-11T09:25:58.265Z,0.77
2022-11-11T09:28:25.167Z,0.90
2022-11-11T09:30:51.944Z,0.73
2022-11-11T09:33:19.850Z,0.70
2022-11-11T09:35:46.825Z,0.80
2022-11-11T09:38:13.588Z,0.93
2022-11-11T09:40:49.925Z,0.85
2022-11-11T09:43:40.876Z,0.60
2022-11-11T09:46:29.336Z,0.80
2022-11-11T09:48:58.744Z,0.77
2022-11-11T09:51:46.814Z,0.98
2022-11-11T09:54:22.884Z,1.00
2022-11-11T09:56:49.959Z,0.68
2022-11-11T09:59:27.657Z,0.85
2022-11-11T10:01:58.277Z,0.70
2022-11-11T10:04:32.242Z,0.60
2022-11-11T10:07:04.153Z,0.70
2022-11-11T10:09:45.601Z,0.63
2022-11-11T10:12:13.663Z,0.73
2022-11-11T10:14:50.366Z,1.13
2022-11-11T10:17:40.677Z,0.80
2022-11-11T10:20:28.390Z,1.60
2022-11-11T10:23:08.184Z,0.70
2022-11-11T10:25:34.875Z,0.82
2022-11-11T10:28:02.157Z,1.40
2022-11-11T10:30:31.847Z,0.68
2022-11-11T10:33:17.469Z,0.80
2022-11-11T10:35:44.710Z,1.20
2022-11-11T10:38:11.501Z,1.00
2022-11-11T10:40:45.173Z,1.00
2022-11-11T10:43:19.025Z,0.80
2022-11-11T10:46:00.756Z,0.90
2022-11-11T10:48:55.254Z,1.00
2022-11-11T10:51:22.147Z,0.60
2022-11-11T10:54:00.799Z,0.65
2022-11-11T10:56:43.235Z,0.95
2022-11-11T10:59:18.841Z,0.90
2022-11-11T11:01:50.233Z,0.75
2022-11-11T11:04:37.808Z,0.60
2022-11-11T11:07:05.819Z,1.02
2022-11-11T11:09:35.848Z,0.80
2022-11-11T11:12:08.138Z,0.93
2022-11-11T11:14:42.881Z,0.70
2022-11-11T11:17:22.833Z,0.98
2022-11-11T11:20:14.218Z,1.00
2022-11-11T11:22:52.130Z,0.75
2022-11-11T11:25:22.424Z,1.10
2022-11-11T11:27:52.875Z,0.70
2022-11-11T11:30:24.723Z,0.70
2022-11-11T11:33:02.258Z,0.98
2022-11-11T11:35:40.911Z,1.02
2022-11-11T11:38:08.868Z,1.05
2022-11-11T11:40:48.553Z,0.77
2022-11-11T11:43:34.769Z,1.30
2022-11-11T11:46:08.114Z,0.70
2022-11-11T11:49:00.422Z,0.98
2022-11-11T11:51:35.533Z,0.75
2022-11-11T11:54:24.277Z,0.85
2022-11-11T11:56:52.499Z,0.80
2022-11-11T11:59:42.309Z,0.80
2022-11-11T12:02:34.245Z,1.00
2022-11-11T12:05:50.190Z,0.82
2022-11-11T12:08:47.504Z,0.85
2022-11-11T12:11:41.453Z,0.70
2022-11-11T12:14:36.330Z,0.60
2022-11-11T12:17:23.460Z,0.90
2022-11-11T12:20:14.938Z,0.60
2022-11-11T12:22:51.942Z,0.88
2022-11-11T12:25:38.365Z,0.73
2022-11-11T12:28:08.231Z,0.70
2022-11-11T12:30:35.224Z,0.82
2022-11-11T12:33:27.553Z,0.60
2022-11-11T12:36:05.631Z,1.17
2022-11-11T12:38:57.817Z,0.80
2022-11-11T12:41:27.586Z,0.60
2022-11-11T12:44:05.873Z,0.88
2022-11-11T12:46:41.751Z,0.90
2022-11-11T12:49:24.141Z,0.70
2022-11-11T12:52:16.677Z,0.70
2022-11-11T12:55:02.136Z,1.35
2022-11-11T12:57:46.497Z,0.80
2022-11-11T13:00:20.655Z,1.02
2022-11-11T13:03:06.787Z,0.73
2022-11-11T13:05:58.239Z,0.57
2022-11-11T13:08:38.467Z,0.90
2022-11-11T13:11:14.115Z,0.82
2022-11-11T13:14:08.734Z,1.10
2022-11-11T13:16:35.631Z,1.00
2022-11-11T13:19:20.126Z,1.13
2022-11-11T13:21:51.193Z,0.75
2022-11-11T13:24:20.784Z,1.00
2022-11-11T13:26:57.360Z,0.80
2022-11-11T13:29:33.580Z,0.80
2022-11-11T13:32:00.917Z,0.80
2022-11-11T13:34:27.733Z,0.75
2022-11-11T13:36:55.491Z,0.55
2022-11-11T13:39:24.162Z,0.50
2022-11-11T13:41:53.690Z,0.90
2022-11-11T13:44:27.952Z,0.60
2022-11-11T13:47:00.748Z,0.60
2022-11-11T13:49:32.519Z,0.60
2022-11-11T13:52:06.163Z,1.00
2022-11-11T13:54:34.022Z,0.82
2022-11-11T13:57:18.923Z,0.50
2022-11-11T14:00:21.107Z,0.30
2022-11-11T14:02:48.350Z,0.73
2022-11-11T14:05:17.758Z,0.75
2022-11-11T14:07:44.788Z,0.70
2022-11-11T14:10:32.022Z,0.40
2022-11-11T14:13:18.819Z,0.52
2022-11-11T14:15:50.453Z,0.40
2022-11-11T14:18:20.565Z,0.60
2022-11-11T14:20:54.131Z,0.60
2022-11-11T14:23:24.064Z,0.70
2022-11-11T14:25:52.556Z,0.63
2022-11-11T14:28:24.709Z,0.40
2022-11-11T14:30:51.966Z,0.50
2022-11-11T14:33:25.057Z,0.50
2022-11-11T14:36:14.794Z,0.60
2022-11-11T14:39:19.145Z,0.50
2022-11-11T14:41:49.660Z,0.50
2022-11-11T14:44:34.807Z,0.45
2022-11-11T14:47:09.836Z,0.50
2022-11-11T14:49:45.744Z,0.50
2022-11-11T14:52:24.302Z,0.50
2022-11-11T14:55:03.182Z,0.47
2022-11-11T14:57:39.178Z,0.75
2022-11-11T15:00:17.687Z,0.47
2022-11-11T15:03:07.044Z,0.63
2022-11-11T15:06:02.048Z,1.33
2022-11-11T15:08:44.698Z,0.60
2022-11-11T15:11:21.301Z,0.50
2022-11-11T15:14:09.124Z,0.38
2022-11-11T15:17:15.106Z,0.38
2022-11-11T15:20:06.831Z,0.50
2022-11-11T15:22:57.817Z,0.32
2022-11-11T15:25:49.364Z,0.40
2022-11-11T15:28:49.976Z,0.30
2022-11-11T15:31:54.409Z,0.40
2022-11-11T15:34:24.184Z,0.50
2022-11-11T15:36:57.205Z,0.40
2022-11-11T15:41:52.474Z,0.50
2022-11-11T15:44:24.266Z,0.40
2022-11-11T15:46:51.247Z,0.30
2022-11-11T15:49:36.861Z,0.43
2022-11-11T15:52:04.163Z,0.60
2022-11-11T15:54:33.540Z,0.50
2022-11-11T15:57:02.529Z,0.57
2022-11-11T15:59:36.102Z,0.93
2022-11-11T16:02:09.102Z,0.47
2022-11-11T16:04:55.033Z,0.60
2022-11-11T16:07:24.512Z,0.80
2022-11-11T16:09:52.207Z,0.80
2022-11-11T16:12:22.582Z,0.68
2022-11-11T16:14:49.604Z,0.55
2022-11-11T16:17:18.908Z,0.43
2022-11-11T16:19:49.356Z,0.73
2022-11-11T16:22:24.549Z,0.50
2022-11-11T16:24:51.280Z,0.60
2022-11-11T16:27:21.004Z,0.55
2022-11-11T16:29:48.386Z,0.73
2022-11-11T16:32:24.543Z,0.65
2022-11-11T16:34:52.902Z,0.50
2022-11-11T16:37:20.458Z,0.60
2022-11-11T16:39:47.420Z,0.40
2022-11-11T16:42:33.354Z,0.52
2022-11-11T16:45:05.480Z,0.32
2022-11-11T16:47:35.350Z,0.43
2022-11-11T16:50:17.726Z,0.68
2022-11-11T16:52:55.965Z,0.43
2022-11-11T16:55:26.619Z,0.60
2022-11-11T16:57:53.899Z,0.50
2022-11-11T17:00:24.094Z,0.50
2022-11-11T17:03:12.826Z,0.50
2022-11-11T17:06:08.415Z,0.50
2022-11-11T17:08:42.899Z,0.30
2022-11-11T17:11:38.606Z,0.50
2022-11-11T17:14:05.918Z,0.52
2022-11-11T17:16:33.101Z,0.50
2022-11-11T17:19:00.505Z,0.60
2022-11-11T17:21:27.440Z,0.70
2022-11-11T17:23:54.261Z,0.40
2022-11-11T17:26:21.497Z,0.60
2022-11-11T17:28:48.410Z,0.60
2022-11-11T17:31:16.416Z,0.88
2022-11-11T17:33:45.685Z,0.77
2022-11-11T17:36:12.619Z,0.80
2022-11-11T17:38:39.669Z,0.80
2022-11-11T17:41:06.856Z,0.63
2022-11-11T17:43:33.851Z,0.70
2022-11-11T17:46:01.518Z,0.40
2022-11-11T17:48:29.063Z,0.50
2022-11-11T17:50:56.799Z,0.57
2022-11-11T17:53:23.574Z,0.40
2022-11-11T17:55:51.267Z,0.60
2022-11-11T17:58:19.620Z,0.60
2022-11-11T18:00:47.521Z,0.30
2022-11-11T18:03:15.210Z,0.40
2022-11-11T18:05:42.021Z,0.65
2022-11-11T18:08:09.065Z,0.57
2022-11-11T18:10:35.989Z,0.93
2022-11-11T18:13:02.831Z,0.50
2022-11-11T18:15:29.761Z,0.47
2022-11-11T18:17:56.751Z,0.47
2022-11-11T18:20:23.659Z,0.70
2022-11-11T18:22:50.735Z,0.80
2022-11-11T18:25:17.832Z,0.68
2022-11-11T18:27:45.612Z,0.80
2022-11-11T18:30:13.501Z,0.80
2022-11-11T18:32:40.765Z,0.60
2022-11-11T18:35:08.283Z,0.57
2022-11-11T18:37:38.626Z,0.68
2022-11-11T18:40:08.843Z,0.77
2022-11-11T18:42:35.763Z,0.80
2022-11-11T18:45:02.686Z,0.60
2022-11-11T18:47:29.512Z,0.77
2022-11-11T18:49:56.514Z,0.68
2022-11-11T18:52:23.151Z,0.60
2022-11-11T18:54:49.909Z,0.82
2022-11-11T18:57:16.633Z,0.70
2022-11-11T18:59:45.430Z,0.50
2022-11-11T19:02:12.341Z,0.50
2022-11-11T19:04:39.012Z,0.52
2022-11-11T19:07:05.741Z,0.95
2022-11-11T19:09:32.961Z,0.52
2022-11-11T19:11:59.702Z,0.73
2022-11-11T19:14:27.936Z,0.80
2022-11-11T19:16:54.763Z,0.50
2022-11-11T19:19:21.685Z,0.68
2022-11-11T19:21:48.531Z,0.60
2022-11-11T19:24:17.696Z,0.73
2022-11-11T19:26:47.692Z,0.90
2022-11-11T19:29:14.811Z,0.73
2022-11-11T19:31:42.121Z,0.60
2022-11-11T19:34:10.441Z,0.68
2022-11-11T19:36:37.268Z,0.70
2022-11-11T19:39:04.991Z,1.00
2022-11-11T19:41:32.923Z,0.70
2022-11-11T19:43:59.697Z,0.60
2022-11-11T19:46:27.939Z,0.50
2022-11-11T19:48:55.804Z,0.90
2022-11-11T19:51:23.448Z,0.63
2022-11-11T19:53:55.012Z,0.63
2022-11-11T19:56:23.342Z,0.60
2022-11-11T19:58:50.083Z,0.50
2022-11-11T20:01:21.792Z,0.50
2022-11-11T20:03:48.725Z,0.57
2022-11-11T20:06:31.520Z,0.60
2022-11-11T20:08:59.939Z,0.60
2022-11-11T20:11:27.210Z,0.65
2022-11-11T20:13:54.494Z,0.68
2022-11-11T20:16:21.191Z,0.90
2022-11-11T20:18:48.223Z,0.70
2022-11-11T20:21:15.111Z,0.77
2022-11-11T20:23:42.047Z,0.70
2022-11-11T20:26:11.475Z,0.95
2022-11-11T20:28:39.159Z,0.60
2022-11-11T20:31:10.700Z,1.42
2022-11-11T20:33:39.201Z,1.75
2022-11-11T20:36:07.909Z,1.73
2022-11-11T20:38:34.714Z,2.00
2022-11-11T20:41:02.867Z,2.03
2022-11-11T20:43:30.254Z,1.73
2022-11-11T20:46:02.325Z,1.88
2022-11-11T20:48:29.278Z,1.90
2022-11-11T20:51:29.218Z,1.98
2022-11-11T20:53:56.992Z,1.48
2022-11-11T20:56:24.735Z,1.50
2022-11-11T20:58:54.869Z,1.02
2022-11-11T21:01:23.367Z,1.35
2022-11-11T21:03:56.243Z,1.08
2022-11-11T21:06:23.134Z,1.02
2022-11-11T21:08:49.990Z,0.95
2022-11-11T21:11:18.019Z,0.77
2022-11-11T21:13:45.808Z,1.10
2022-11-11T21:16:17.884Z,1.02
2022-11-11T21:18:45.551Z,0.95
2022-11-11T21:21:17.298Z,0.70
2022-11-11T21:23:44.096Z,0.60
2022-11-11T21:26:12.766Z,0.70
2022-11-11T21:28:40.480Z,0.88
2022-11-11T21:31:08.892Z,0.90
2022-11-11T21:33:36.182Z,0.80
2022-11-11T21:36:07.472Z,1.20
2022-11-11T21:38:35.624Z,1.30
2022-11-11T21:41:09.716Z,0.93
2022-11-11T21:43:37.291Z,1.08
2022-11-11T21:46:05.221Z,1.20
2022-11-11T21:48:32.418Z,1.20
2022-11-11T21:51:14.674Z,1.48
2022-11-11T21:53:42.445Z,1.45
2022-11-11T21:56:13.240Z,1.10
2022-11-11T21:58:43.917Z,1.23
2022-11-11T22:01:27.408Z,1.02
2022-11-11T22:04:07.240Z,1.40
2022-11-11T22:06:34.367Z,1.30
2022-11-11T22:09:02.094Z,1.40
2022-11-11T22:11:33.029Z,1.25
2022-11-11T22:14:01.202Z,1.33
2022-11-11T22:16:34.820Z,1.05
2022-11-11T22:19:06.743Z,1.30
2022-11-11T22:21:34.025Z,1.00
2022-11-11T22:24:02.318Z,1.15
2022-11-11T22:26:35.039Z,1.27
2022-11-11T22:29:02.530Z,1.27
2022-11-11T22:31:30.221Z,1.02
2022-11-11T22:34:01.827Z,1.42
2022-11-11T22:36:29.776Z,1.05
2022-11-11T22:38:56.769Z,1.02
2022-11-11T22:41:28.049Z,1.17
2022-11-11T22:44:02.262Z,1.40
2022-11-11T22:46:30.312Z,1.02
2022-11-11T22:49:00.962Z,1.38
2022-11-11T22:51:29.228Z,1.00
2022-11-11T22:54:03.230Z,1.10
2022-11-11T22:56:30.089Z,1.10
2022-11-11T22:58:57.315Z,1.10
2022-11-11T23:01:31.583Z,1.02
2022-11-11T23:04:00.162Z,1.20
2022-11-11T23:06:27.966Z,1.20
2022-11-11T23:08:54.668Z,1.10
2022-11-11T23:11:23.112Z,1.00
2022-11-11T23:13:50.198Z,1.13
2022-11-11T23:16:20.547Z,0.80
2022-11-11T23:18:47.350Z,0.80
2022-11-11T23:21:18.626Z,1.00
2022-11-11T23:23:45.622Z,0.80
2022-11-11T23:26:17.495Z,1.13
2022-11-11T23:28:44.436Z,1.00
2022-11-11T23:31:15.983Z,1.30
2022-11-11T23:33:48.382Z,1.10
2022-11-11T23:36:17.143Z,0.98
2022-11-11T23:38:43.811Z,1.08
2022-11-11T23:41:10.916Z,1.08
2022-11-11T23:43:37.854Z,1.30
2022-11-11T23:46:05.736Z,1.48
2022-11-11T23:48:32.662Z,1.42
2022-11-11T23:50:59.803Z,1.30
2022-11-11T23:53:26.619Z,1.33
2022-11-11T23:55:53.337Z,1.38
2022-11-11T23:58:20.048Z,1.50
